createdAt,value
2023-12-11T00:01:25.795Z,5.45
2023-12-11T00:04:20.400Z,4.95
2023-12-11T00:07:14.808Z,4.47
2023-12-11T00:10:09.874Z,4.18
2023-12-11T00:13:05.502Z,6.53
2023-12-11T00:16:00.784Z,4.78
2023-12-11T00:18:55.261Z,3.20
2023-12-11T00:21:49.873Z,4.05
2023-12-11T00:24:44.298Z,4.32
2023-12-11T00:27:39.131Z,4.47
2023-12-11T00:30:33.526Z,3.53
2023-12-11T00:33:27.989Z,4.22
2023-12-11T00:36:22.421Z,5.22
2023-12-11T00:39:18.551Z,3.40
2023-12-11T00:42:12.873Z,3.97
2023-12-11T00:45:08.031Z,3.63
2023-12-11T00:48:02.542Z,4.55
2023-12-11T00:50:57.038Z,6.95
2023-12-11T00:53:51.419Z,5.30
2023-12-11T00:56:45.749Z,3.42
2023-12-11T00:59:41.400Z,4.43
2023-12-11T01:02:35.822Z,3.92
2023-12-11T01:05:30.192Z,4.40
2023-12-11T01:08:25.314Z,4.05
2023-12-11T01:11:19.555Z,5.97
2023-12-11T01:14:13.886Z,6.88
2023-12-11T01:17:36.628Z,3.50
2023-12-11T01:20:22.540Z,3.67
2023-12-11T01:23:16.809Z,3.78
2023-12-11T01:26:11.796Z,3.92
2023-12-11T01:29:06.327Z,3.65
2023-12-11T01:32:00.886Z,3.35
2023-12-11T01:34:55.339Z,3.08
2023-12-11T01:37:49.658Z,4.00
2023-12-11T01:40:44.015Z,4.57
2023-12-11T01:43:38.411Z,3.75
2023-12-11T01:46:34.636Z,5.90
2023-12-11T01:49:29.273Z,5.07
2023-12-11T01:52:24.035Z,3.95
2023-12-11T01:55:18.570Z,4.72
2023-12-11T01:58:15.700Z,5.90
2023-12-11T02:04:05.780Z,3.22
2023-12-11T02:07:00.869Z,3.45
2023-12-11T02:09:55.160Z,3.20
2023-12-11T02:12:49.574Z,4.18
2023-12-11T02:15:44.961Z,3.88
2023-12-11T02:18:39.854Z,3.97
2023-12-11T02:21:34.722Z,3.90
2023-12-11T02:24:35.565Z,3.30
2023-12-11T02:27:31.026Z,4.85
2023-12-11T02:30:25.619Z,3.08
2023-12-11T02:33:20.353Z,3.42
2023-12-11T02:36:14.895Z,5.22
2023-12-11T02:39:09.203Z,3.00
2023-12-11T02:42:03.629Z,3.45
2023-12-11T02:44:57.921Z,3.45
2023-12-11T02:47:52.344Z,3.30
2023-12-11T02:50:46.671Z,4.25
2023-12-11T02:53:41.121Z,3.28
2023-12-11T02:56:35.460Z,4.53
2023-12-11T02:59:29.783Z,3.47
2023-12-11T03:02:24.129Z,4.13
2023-12-11T03:05:18.666Z,3.88
2023-12-11T03:08:13.095Z,3.15
2023-12-11T03:11:07.515Z,4.90
2023-12-11T03:14:01.782Z,4.75
2023-12-11T03:16:56.068Z,3.63
2023-12-11T03:19:50.454Z,5.03
2023-12-11T03:22:45.448Z,3.38
2023-12-11T03:25:40.067Z,3.70
2023-12-11T03:28:34.993Z,4.53
2023-12-11T03:31:29.289Z,6.97
2023-12-11T03:34:23.655Z,3.45
2023-12-11T03:37:18.094Z,3.70
2023-12-11T03:40:13.204Z,4.78
2023-12-11T03:43:07.712Z,3.92
2023-12-11T03:46:02.663Z,3.90
2023-12-11T03:48:57.231Z,5.85
2023-12-11T03:51:51.708Z,4.30
2023-12-11T03:54:46.167Z,5.15
2023-12-11T03:57:40.879Z,4.47
2023-12-11T04:00:36.027Z,4.22
2023-12-11T04:03:30.609Z,3.50
2023-12-11T04:06:25.045Z,4.07
2023-12-11T04:09:19.812Z,6.03
2023-12-11T04:12:15.261Z,5.15
2023-12-11T04:15:10.639Z,3.75
2023-12-11T04:18:05.452Z,4.70
2023-12-11T04:21:00.811Z,5.55
2023-12-11T04:23:57.593Z,4.57
2023-12-11T04:26:52.424Z,3.97
2023-12-11T04:29:46.748Z,4.75
2023-12-11T04:32:41.106Z,11.95
2023-12-11T04:35:35.445Z,12.02
2023-12-11T04:38:29.702Z,13.82
2023-12-11T04:41:24.095Z,9.90
2023-12-11T04:44:18.553Z,7.38
2023-12-11T04:47:12.888Z,11.52
2023-12-11T04:50:07.774Z,8.68
2023-12-11T04:53:02.181Z,12.27
2023-12-11T04:55:56.626Z,7.22
2023-12-11T04:58:50.913Z,8.48
2023-12-11T05:01:45.397Z,7.55
2023-12-11T05:04:39.917Z,6.90
2023-12-11T05:07:34.431Z,9.93
2023-12-11T05:10:28.700Z,6.30
2023-12-11T05:13:22.998Z,6.45
2023-12-11T05:16:17.497Z,7.60
2023-12-11T05:19:11.959Z,12.55
2023-12-11T05:22:06.964Z,13.93
2023-12-11T05:25:01.345Z,8.75
2023-12-11T05:27:55.705Z,8.32
2023-12-11T05:30:50.119Z,6.40
2023-12-11T05:33:44.901Z,8.13
2023-12-11T05:36:39.347Z,9.15
2023-12-11T05:39:33.991Z,11.60
2023-12-11T05:42:28.407Z,9.18
2023-12-11T05:45:22.908Z,7.20
2023-12-11T05:48:18.812Z,8.02
2023-12-11T05:51:13.192Z,9.82
2023-12-11T05:54:07.572Z,7.65
2023-12-11T05:57:01.901Z,7.82
2023-12-11T05:59:56.213Z,6.25
2023-12-11T06:02:50.642Z,3.95
2023-12-11T06:05:45.258Z,4.13
2023-12-11T06:08:39.713Z,2.90
2023-12-11T06:11:34.224Z,2.17
2023-12-11T06:14:28.621Z,2.42
2023-12-11T06:17:23.142Z,3.50
2023-12-11T06:20:17.488Z,1.85
2023-12-11T06:23:11.957Z,2.15
2023-12-11T06:26:06.455Z,2.00
2023-12-11T06:29:03.994Z,2.80
2023-12-11T06:31:58.346Z,2.67
2023-12-11T06:34:53.078Z,2.38
2023-12-11T06:37:47.420Z,3.63
2023-12-11T06:40:41.703Z,2.97
2023-12-11T06:43:38.192Z,3.83
2023-12-11T06:46:32.575Z,2.92
2023-12-11T06:49:27.812Z,3.55
2023-12-11T06:52:22.346Z,6.88
2023-12-11T06:55:16.853Z,4.78
2023-12-11T06:58:11.287Z,4.38
2023-12-11T07:01:06.042Z,4.25
2023-12-11T07:04:00.776Z,4.38
2023-12-11T07:06:55.224Z,4.40
2023-12-11T07:09:49.940Z,7.10
2023-12-11T07:12:48.353Z,4.53
2023-12-11T07:15:43.259Z,6.38
2023-12-11T07:18:38.047Z,3.65
2023-12-11T07:21:33.337Z,5.10
2023-12-11T07:24:27.641Z,6.68
2023-12-11T07:27:22.040Z,5.93
2023-12-11T07:30:16.699Z,6.28
2023-12-11T07:33:13.910Z,8.90
2023-12-11T07:39:02.373Z,5.82
2023-12-11T07:41:57.663Z,6.47
2023-12-11T07:44:52.039Z,6.03
2023-12-11T07:47:46.436Z,8.48
2023-12-11T07:50:41.696Z,4.50
2023-12-11T07:53:37.306Z,4.60
2023-12-11T07:56:32.383Z,5.00
2023-12-11T07:59:26.687Z,5.18
2023-12-11T08:02:21.263Z,6.60
2023-12-11T08:05:15.613Z,4.25
2023-12-11T08:08:09.960Z,5.80
2023-12-11T08:11:04.411Z,6.88
2023-12-11T08:14:00.127Z,5.20
2023-12-11T08:16:54.905Z,4.05
2023-12-11T08:19:49.449Z,5.50
2023-12-11T08:22:43.809Z,6.97
2023-12-11T08:25:38.114Z,4.47
2023-12-11T08:28:32.408Z,6.10
2023-12-11T08:31:26.876Z,5.30
2023-12-11T08:34:22.960Z,7.00
2023-12-11T08:37:17.804Z,6.03
2023-12-11T08:40:12.836Z,7.13
2023-12-11T08:43:07.398Z,7.65
2023-12-11T08:46:01.826Z,6.28
2023-12-11T08:48:56.245Z,5.85
2023-12-11T08:51:50.710Z,6.63
2023-12-11T08:54:45.161Z,4.22
2023-12-11T08:57:39.591Z,5.70
2023-12-11T09:00:33.937Z,6.25
2023-12-11T09:03:28.492Z,5.38
2023-12-11T09:06:22.938Z,5.18
2023-12-11T09:09:17.337Z,7.32
2023-12-11T09:12:22.856Z,5.47
2023-12-11T09:15:24.765Z,6.45
2023-12-11T09:18:19.204Z,6.43
2023-12-11T09:21:13.561Z,4.53
2023-12-11T09:24:08.238Z,5.57
2023-12-11T09:27:02.516Z,5.75
2023-12-11T09:29:57.152Z,5.93
2023-12-11T09:32:51.600Z,6.20
2023-12-11T09:35:46.515Z,5.00
2023-12-11T09:38:41.030Z,5.05
2023-12-11T09:41:36.878Z,6.82
2023-12-11T09:44:31.911Z,6.20
2023-12-11T09:47:51.009Z,5.95
2023-12-11T09:50:50.620Z,5.40
2023-12-11T09:53:45.951Z,7.03
2023-12-11T09:56:42.429Z,4.82
2023-12-11T09:59:36.893Z,4.88
2023-12-11T10:02:31.571Z,4.75
2023-12-11T10:05:27.845Z,4.70
2023-12-11T10:08:22.193Z,4.20
2023-12-11T10:11:21.635Z,6.60
2023-12-11T10:14:16.153Z,5.30
2023-12-11T10:17:20.353Z,3.97
2023-12-11T10:20:19.579Z,7.40
2023-12-11T10:23:20.875Z,5.18
2023-12-11T10:26:15.582Z,7.05
2023-12-11T10:29:36.213Z,6.65
2023-12-11T10:32:31.748Z,5.72
2023-12-11T10:35:26.711Z,5.82
2023-12-11T10:38:30.157Z,7.22
2023-12-11T10:41:29.125Z,5.25
2023-12-11T10:44:43.280Z,7.78
2023-12-11T10:47:43.491Z,6.43
2023-12-11T10:50:39.514Z,4.63
2023-12-11T10:53:35.831Z,5.32
2023-12-11T10:56:30.422Z,6.80
2023-12-11T10:59:25.473Z,5.07
2023-12-11T11:02:23.225Z,5.88
2023-12-11T11:05:18.311Z,6.07
2023-12-11T11:08:34.186Z,5.97
2023-12-11T11:11:40.170Z,5.65
2023-12-11T11:14:50.959Z,5.78
2023-12-11T11:18:04.122Z,7.68
2023-12-11T11:21:13.934Z,4.97
2023-12-11T11:24:30.983Z,5.45
2023-12-11T11:27:51.566Z,7.15
2023-12-11T11:30:48.946Z,7.80
2023-12-11T11:33:50.319Z,6.90
2023-12-11T11:36:49.576Z,5.70
2023-12-11T11:40:04.933Z,7.53
2023-12-11T11:42:59.454Z,8.75
2023-12-11T11:45:58.375Z,7.15
2023-12-11T11:48:52.976Z,5.78
2023-12-11T11:51:47.386Z,6.47
2023-12-11T11:54:43.021Z,6.75
2023-12-11T11:57:38.372Z,5.03
2023-12-11T12:00:33.717Z,7.05
2023-12-11T12:03:28.493Z,6.60
2023-12-11T12:06:23.511Z,7.13
2023-12-11T12:09:21.258Z,6.82
2023-12-11T12:12:18.700Z,6.53
2023-12-11T12:15:13.086Z,5.97
2023-12-11T12:18:11.003Z,5.53
2023-12-11T12:21:07.014Z,6.22
2023-12-11T12:24:07.383Z,5.72
2023-12-11T12:27:04.819Z,5.18
2023-12-11T12:29:59.765Z,6.05
2023-12-11T12:32:54.720Z,4.50
2023-12-11T12:35:51.142Z,4.90
2023-12-11T12:38:46.763Z,6.85
2023-12-11T12:41:41.283Z,9.52
2023-12-11T12:44:42.275Z,7.50
2023-12-11T12:47:36.786Z,8.57
2023-12-11T12:50:31.265Z,5.20
2023-12-11T12:53:27.556Z,6.60
2023-12-11T12:56:22.885Z,6.47
2023-12-11T12:59:17.535Z,5.78
2023-12-11T13:02:19.200Z,6.70
2023-12-11T13:05:14.321Z,5.70
2023-12-11T13:08:08.564Z,5.32
2023-12-11T13:11:03.211Z,6.53
2023-12-11T13:13:57.703Z,4.80
2023-12-11T13:16:52.304Z,4.90
2023-12-11T13:19:46.737Z,5.93
2023-12-11T13:22:42.124Z,5.22
2023-12-11T13:25:36.408Z,5.53
2023-12-11T13:28:31.207Z,4.63
2023-12-11T13:31:26.786Z,6.03
2023-12-11T13:34:21.318Z,6.10
2023-12-11T13:37:15.681Z,8.02
2023-12-11T13:40:10.731Z,6.43
2023-12-11T13:43:05.049Z,5.47
2023-12-11T13:45:59.309Z,4.72
2023-12-11T13:48:53.728Z,7.13
2023-12-11T13:51:48.170Z,5.82
2023-12-11T13:54:42.601Z,8.02
2023-12-11T13:57:37.098Z,5.50
2023-12-11T14:00:31.510Z,6.43
2023-12-11T14:03:25.829Z,5.88
2023-12-11T14:06:20.063Z,6.20
2023-12-11T14:09:15.222Z,5.78
2023-12-11T14:12:10.024Z,5.30
2023-12-11T14:15:04.497Z,5.28
2023-12-11T14:17:59.070Z,6.13
2023-12-11T14:20:54.346Z,7.22
2023-12-11T14:23:49.235Z,6.95
2023-12-11T14:26:48.051Z,5.95
2023-12-11T14:29:47.350Z,5.93
2023-12-11T14:32:41.967Z,7.82
2023-12-11T14:35:36.631Z,5.57
2023-12-11T14:38:31.212Z,7.43
2023-12-11T14:41:25.581Z,6.85
2023-12-11T14:44:20.457Z,5.32
2023-12-11T14:47:14.764Z,6.60
2023-12-11T14:50:09.846Z,7.25
2023-12-11T14:53:04.270Z,6.55
2023-12-11T14:55:59.071Z,5.70
2023-12-11T14:58:53.280Z,6.18
2023-12-11T15:01:50.469Z,5.18
2023-12-11T15:07:39.024Z,6.50
2023-12-11T15:10:33.289Z,5.57
2023-12-11T15:13:27.902Z,5.53
2023-12-11T15:16:26.038Z,5.90
2023-12-11T15:19:20.731Z,5.60
2023-12-11T15:22:15.248Z,4.93
2023-12-11T15:25:13.402Z,6.88
2023-12-11T15:28:07.740Z,4.82
2023-12-11T15:31:13.040Z,7.32
2023-12-11T15:34:09.013Z,4.85
2023-12-11T15:37:07.005Z,5.50
2023-12-11T15:40:01.356Z,5.25
2023-12-11T15:42:56.240Z,4.60
2023-12-11T15:45:51.235Z,6.53
2023-12-11T15:48:48.611Z,4.35
2023-12-11T15:51:43.301Z,5.70
2023-12-11T15:54:38.376Z,4.35
2023-12-11T15:57:33.847Z,4.57
2023-12-11T16:00:29.186Z,6.05
2023-12-11T16:03:23.486Z,4.88
2023-12-11T16:06:18.112Z,6.53
2023-12-11T16:09:12.639Z,5.38
2023-12-11T16:12:07.273Z,6.53
2023-12-11T16:15:03.765Z,6.57
2023-12-11T16:17:58.277Z,6.10
2023-12-11T16:20:52.583Z,5.53
2023-12-11T16:23:46.841Z,6.22
2023-12-11T16:26:41.072Z,6.90
2023-12-11T16:29:37.555Z,5.75
2023-12-11T16:32:32.702Z,4.40
2023-12-11T16:35:27.260Z,4.07
2023-12-11T16:38:21.577Z,6.00
2023-12-11T16:41:28.787Z,4.95
2023-12-11T16:44:23.015Z,5.18
2023-12-11T16:47:17.279Z,4.38
2023-12-11T16:50:11.855Z,3.83
2023-12-11T16:53:06.902Z,5.60
2023-12-11T16:56:01.189Z,6.43
2023-12-11T16:58:56.030Z,4.82
2023-12-11T17:01:50.842Z,5.40
2023-12-11T17:04:47.264Z,4.45
2023-12-11T17:07:41.605Z,6.38
2023-12-11T17:10:36.108Z,4.88
2023-12-11T17:13:30.615Z,5.72
2023-12-11T17:16:25.161Z,5.53
2023-12-11T17:19:19.551Z,5.85
2023-12-11T17:22:14.051Z,4.93
2023-12-11T17:25:08.724Z,8.25
2023-12-11T17:28:05.428Z,5.60
2023-12-11T17:31:00.037Z,6.15
2023-12-11T17:33:54.438Z,6.43
2023-12-11T17:36:48.811Z,7.55
2023-12-11T17:39:43.157Z,6.40
2023-12-11T17:42:37.431Z,5.47
2023-12-11T17:45:31.752Z,6.30
2023-12-11T17:48:26.000Z,8.13
2023-12-11T17:51:20.809Z,4.97
2023-12-11T17:54:15.854Z,6.57
2023-12-11T17:57:11.979Z,4.30
2023-12-11T18:00:07.466Z,4.43
2023-12-11T18:03:01.983Z,4.22
2023-12-11T18:05:56.410Z,4.18
2023-12-11T18:08:50.678Z,4.30
2023-12-11T18:11:44.963Z,4.57
2023-12-11T18:14:39.195Z,4.85
2023-12-11T18:17:33.734Z,4.35
2023-12-11T18:20:28.311Z,5.57
2023-12-11T18:23:22.646Z,4.22
2023-12-11T18:26:16.910Z,4.40
2023-12-11T18:29:11.187Z,5.18
2023-12-11T18:32:05.634Z,4.70
2023-12-11T18:35:02.685Z,4.40
2023-12-11T18:37:56.964Z,4.60
2023-12-11T18:40:51.203Z,4.22
2023-12-11T18:43:45.814Z,5.00
2023-12-11T18:46:40.706Z,5.00
2023-12-11T18:49:35.143Z,5.35
2023-12-11T18:52:29.564Z,4.40
2023-12-11T18:55:23.952Z,4.97
2023-12-11T18:58:18.195Z,5.35
2023-12-11T19:01:14.835Z,5.13
2023-12-11T19:04:09.358Z,5.97
2023-12-11T19:07:04.034Z,6.55
2023-12-11T19:09:58.284Z,5.75
2023-12-11T19:12:54.282Z,5.60
2023-12-11T19:15:48.573Z,6.88
2023-12-11T19:18:43.146Z,7.03
2023-12-11T19:21:38.886Z,5.53
2023-12-11T19:24:34.017Z,6.47
2023-12-11T19:27:28.757Z,7.10
2023-12-11T19:30:23.127Z,7.25
2023-12-11T19:33:17.750Z,7.28
2023-12-11T19:36:12.343Z,5.15
2023-12-11T19:39:06.554Z,6.28
2023-12-11T19:42:00.977Z,5.97
2023-12-11T19:44:55.186Z,4.07
2023-12-11T19:47:49.934Z,4.90
2023-12-11T19:50:44.181Z,4.70
2023-12-11T19:53:38.414Z,6.63
2023-12-11T19:56:32.784Z,5.70
2023-12-11T19:59:26.973Z,6.82
2023-12-11T20:02:21.299Z,5.43
2023-12-11T20:05:15.779Z,5.90
2023-12-11T20:08:10.039Z,5.93
2023-12-11T20:11:04.284Z,5.80
2023-12-11T20:13:58.573Z,6.00
2023-12-11T20:16:52.810Z,7.00
2023-12-11T20:19:47.163Z,5.43
2023-12-11T20:22:41.473Z,7.43
2023-12-11T20:25:36.368Z,5.75
2023-12-11T20:28:31.285Z,5.32
2023-12-11T20:31:25.575Z,4.93
2023-12-11T20:34:20.112Z,4.88
2023-12-11T20:37:14.596Z,5.18
2023-12-11T20:40:09.781Z,4.47
2023-12-11T20:43:09.348Z,4.68
2023-12-11T20:46:08.081Z,5.93
2023-12-11T20:49:02.469Z,4.18
2023-12-11T20:51:56.963Z,4.85
2023-12-11T20:54:51.319Z,4.72
2023-12-11T20:57:45.676Z,4.43
2023-12-11T21:00:39.920Z,3.17
2023-12-11T21:03:34.507Z,3.25
2023-12-11T21:06:30.774Z,2.15
2023-12-11T21:09:25.139Z,2.60
2023-12-11T21:12:19.771Z,2.95
2023-12-11T21:15:14.349Z,2.30
2023-12-11T21:18:08.935Z,1.30
2023-12-11T21:21:04.232Z,1.58
2023-12-11T21:23:58.569Z,1.95
2023-12-11T21:26:52.933Z,1.08
2023-12-11T21:29:49.924Z,1.63
2023-12-11T21:32:44.923Z,3.65
2023-12-11T21:35:39.170Z,2.70
2023-12-11T21:38:33.475Z,2.45
2023-12-11T21:41:28.066Z,2.35
2023-12-11T21:44:22.556Z,1.10
2023-12-11T21:47:16.779Z,2.17
2023-12-11T21:50:11.561Z,2.78
2023-12-11T21:53:05.831Z,2.25
2023-12-11T21:56:00.170Z,2.03
2023-12-11T21:58:54.463Z,1.83
2023-12-11T22:01:48.894Z,3.03
2023-12-11T22:04:43.155Z,1.17
2023-12-11T22:07:37.484Z,6.90
2023-12-11T22:10:31.762Z,3.78
2023-12-11T22:13:26.162Z,3.00
2023-12-11T22:16:20.553Z,3.40
2023-12-11T22:19:15.097Z,1.52
2023-12-11T22:22:09.477Z,2.05
2023-12-11T22:25:03.729Z,1.75
2023-12-11T22:27:58.095Z,1.80
2023-12-11T22:30:52.378Z,1.60
2023-12-11T22:33:46.837Z,1.10
2023-12-11T22:36:41.408Z,1.00
2023-12-11T22:39:35.656Z,3.80
2023-12-11T22:42:30.015Z,8.88
2023-12-11T22:45:24.500Z,1.45
2023-12-11T22:48:19.634Z,1.15
2023-12-11T22:51:13.940Z,1.10
2023-12-11T22:54:08.172Z,0.82
2023-12-11T22:57:02.840Z,1.60
2023-12-11T22:59:57.125Z,1.00
2023-12-11T23:02:51.556Z,0.70
2023-12-11T23:05:45.878Z,2.55
2023-12-11T23:08:40.200Z,1.40
2023-12-11T23:11:34.430Z,0.60
2023-12-11T23:14:28.738Z,0.70
2023-12-11T23:17:23.382Z,0.77
2023-12-11T23:20:18.024Z,1.55
2023-12-11T23:23:12.318Z,0.70
2023-12-11T23:26:06.715Z,1.88
2023-12-11T23:29:01.022Z,1.58
2023-12-11T23:31:55.191Z,0.70
2023-12-11T23:34:49.487Z,1.10
2023-12-11T23:37:43.845Z,1.63
2023-12-11T23:40:38.411Z,0.50
2023-12-11T23:43:32.738Z,0.60
2023-12-11T23:46:27.079Z,0.52
2023-12-11T23:49:21.433Z,3.42
2023-12-11T23:52:15.693Z,0.40
2023-12-11T23:55:10.206Z,0.50
2023-12-11T23:58:04.627Z,0.38
